Time;durP1;ratioP1;P1;durP2;ratioP2;P2;SDS_P1;SDS_P2;PMS_P1;PMS_P2;Temp;Humidity;BMP_temperature;BMP_pressure;BME280_temperature;BME280_humidity;BME280_pressure;Samples;Min_cycle;Max_cycle;Signal;HPM_P1;HPM_P2
2022/03/15 00:00:34;;;;;;;23.63;14.30;;;;;;;2.47;72.77;101455.78;5056609;28;20192;-68
2022/03/15 00:03:01;;;;;;;19.13;12.07;;;;;;;2.34;73.04;101442.63;5055457;28;20196;-69
2022/03/15 00:05:30;;;;;;;18.13;12.83;;;;;;;2.39;73.39;101456.31;5063007;28;20299;-69
2022/03/15 00:07:57;;;;;;;20.03;12.43;;;;;;;2.35;73.83;101459.53;5070092;28;20212;-69
2022/03/15 00:10:24;;;;;;;19.87;13.13;;;;;;;2.33;74.04;101451.00;5069980;28;20196;-69
2022/03/15 00:12:54;;;;;;;14.57;13.13;;;;;;;2.26;74.21;101454.16;5070246;28;20206;-69
2022/03/15 00:15:21;;;;;;;19.80;14.83;;;;;;;2.24;74.52;101446.50;5060723;28;20208;-69
2022/03/15 00:17:48;;;;;;;17.10;13.00;;;;;;;2.23;74.59;101443.94;5051753;28;20197;-68
2022/03/15 00:20:20;;;;;;;17.90;13.53;;;;;;;2.16;74.80;101437.78;5056430;28;20287;-69
2022/03/15 00:22:49;;;;;;;20.43;12.87;;;;;;;2.07;75.05;101423.13;5056846;28;20192;-68
2022/03/15 00:25:17;;;;;;;18.30;13.37;;;;;;;2.16;75.01;101442.84;5058291;28;20239;-69
2022/03/15 00:27:45;;;;;;;18.30;11.93;;;;;;;2.13;74.89;101436.81;5053529;28;20801;-68
2022/03/15 00:30:12;;;;;;;14.70;11.93;;;;;;;2.09;74.75;101434.16;5058562;28;20197;-69
2022/03/15 00:32:39;;;;;;;17.97;12.83;;;;;;;2.07;74.71;101433.22;5059750;28;20224;-68
2022/03/15 00:35:11;;;;;;;16.87;13.40;;;;;;;2.04;74.99;101435.66;5064143;28;20303;-68
2022/03/15 00:37:38;;;;;;;16.17;12.53;;;;;;;1.99;75.13;101439.69;5061350;28;20695;-68
2022/03/15 00:40:08;;;;;;;19.60;13.97;;;;;;;1.98;75.37;101437.97;5060877;28;20200;-68
2022/03/15 00:42:35;;;;;;;16.13;13.77;;;;;;;1.87;76.23;101426.59;5066497;28;20287;-68
2022/03/15 00:45:04;;;;;;;27.87;15.07;;;;;;;1.87;77.07;101439.25;5064545;28;20298;-68
2022/03/15 00:47:31;;;;;;;25.17;15.40;;;;;;;1.85;77.36;101438.31;5059688;28;20216;-68
2022/03/15 00:49:58;;;;;;;24.43;14.93;;;;;;;1.77;77.71;101434.66;5056693;28;20211;-68
2022/03/15 00:52:25;;;;;;;24.23;15.30;;;;;;;1.75;78.08;101432.84;5052321;28;20196;-68
2022/03/15 00:54:52;;;;;;;20.00;15.60;;;;;;;1.70;78.04;101432.69;5056902;28;20291;-68
2022/03/15 00:57:20;;;;;;;23.43;15.00;;;;;;;1.58;79.50;101429.72;5058993;28;20220;-68
2022/03/15 00:59:47;;;;;;;18.50;14.40;;;;;;;1.47;79.62;101415.78;5063129;28;20202;-68
2022/03/15 01:02:14;;;;;;;30.27;16.00;;;;;;;1.58;79.91;101434.75;5065896;28;20283;-68
2022/03/15 01:04:41;;;;;;;25.97;16.17;;;;;;;1.61;80.21;101428.94;5060167;28;20202;-68
2022/03/15 01:07:08;;;;;;;26.47;15.57;;;;;;;1.54;80.19;101423.66;5053715;28;20712;-68
2022/03/15 01:09:35;;;;;;;20.33;14.57;;;;;;;1.50;80.24;101424.34;5062275;28;20220;-68
2022/03/15 01:12:03;;;;;;;20.67;13.73;;;;;;;1.39;80.57;101410.41;5054487;28;20200;-68
2022/03/15 01:14:31;;;;;;;16.67;14.20;;;;;;;1.47;80.86;101423.34;5059058;28;20284;-68
2022/03/15 01:16:58;;;;;;;22.60;14.47;;;;;;;1.43;80.96;101418.97;5051895;28;20200;-68
2022/03/15 01:19:25;;;;;;;18.20;12.97;;;;;;;1.40;81.14;101409.63;5059463;28;20307;-68
2022/03/15 01:21:52;;;;;;;16.43;11.63;;;;;;;1.41;81.25;101410.50;5064303;28;20196;-68
2022/03/15 01:24:19;;;;;;;14.10;11.47;;;;;;;1.41;81.13;101406.31;5060512;28;20287;-68
2022/03/15 01:26:46;;;;;;;18.77;11.47;;;;;;;1.38;81.42;101406.19;5061511;28;20755;-68
2022/03/15 01:29:13;;;;;;;19.03;11.33;;;;;;;1.36;81.51;101401.84;5060755;28;20232;-68
2022/03/15 01:31:41;;;;;;;19.80;11.63;;;;;;;1.35;81.32;101400.16;5057736;28;20203;-68
2022/03/15 01:34:08;;;;;;;14.70;10.63;;;;;;;1.31;81.40;101398.31;5051488;28;20239;-67
2022/03/15 01:36:35;;;;;;;13.10;9.87;;;;;;;1.30;81.47;101391.50;5054755;28;20211;-68
2022/03/15 01:39:04;;;;;;;10.77;9.67;;;;;;;1.29;81.59;101392.34;5068993;28;20200;-68
2022/03/15 01:41:35;;;;;;;14.40;11.03;;;;;;;1.27;81.46;101396.44;5061773;28;20200;-68
2022/03/15 01:44:03;;;;;;;15.90;11.63;;;;;;;1.08;81.86;101363.69;5063319;28;20287;-68
2022/03/15 01:46:30;;;;;;;14.30;10.13;;;;;;;1.23;81.72;101392.09;5057306;28;20196;-68
2022/03/15 01:48:58;;;;;;;10.73;9.67;;;;;;;1.22;81.89;101390.38;5050456;28;20201;-68
2022/03/15 01:51:26;;;;;;;10.33;9.40;;;;;;;1.21;81.74;101383.59;5050518;28;20215;-68
2022/03/15 01:53:52;;;;;;;12.77;10.17;;;;;;;1.18;81.66;101384.34;5054297;28;20199;-68
2022/03/15 01:56:19;;;;;;;14.33;10.03;;;;;;;1.16;81.58;101388.47;5054260;28;20228;-68
2022/03/15 01:58:46;;;;;;;13.50;10.10;;;;;;;1.15;81.81;101385.88;5054711;28;20283;-68
2022/03/15 02:01:13;;;;;;;10.47;9.43;;;;;;;0.94;81.94;101351.38;5072454;28;20200;-68
2022/03/15 02:03:40;;;;;;;10.67;9.00;;;;;;;1.08;81.92;101383.91;5072262;28;20290;-68
2022/03/15 02:06:10;;;;;;;15.07;10.10;;;;;;;1.04;82.33;101388.84;5072591;28;20200;-68
2022/03/15 02:08:37;;;;;;;9.23;8.13;;;;;;;0.97;82.52;101386.84;5072490;28;20212;-68
2022/03/15 02:11:04;;;;;;;12.63;9.20;;;;;;;0.81;82.99;101368.53;5072317;28;20611;-68
2022/03/15 02:13:31;;;;;;;9.33;8.57;;;;;;;0.88;83.24;101390.69;5064864;28;20644;-68
2022/03/15 02:15:58;;;;;;;10.13;8.87;;;;;;;0.75;83.44;101375.84;5072491;28;20765;-68
2022/03/15 02:18:26;;;;;;;11.30;9.90;;;;;;;0.84;83.54;101398.94;5072017;28;20192;-68
2022/03/15 02:20:55;;;;;;;10.67;9.07;;;;;;;0.84;83.56;101407.38;5071825;28;20219;-68
2022/03/15 02:23:22;;;;;;;11.77;8.80;;;;;;;0.79;84.07;101410.50;5055162;28;20208;-68
2022/03/15 02:25:49;;;;;;;8.87;7.97;;;;;;;0.71;84.12;101410.19;5057286;28;20746;-68
2022/03/15 02:28:15;;;;;;;8.67;7.77;;;;;;;0.60;84.38;101403.84;5058891;28;20213;-69
2022/03/15 02:30:42;;;;;;;10.63;8.07;;;;;;;0.67;84.52;101410.00;5071785;28;20219;-68
2022/03/15 02:33:09;;;;;;;12.17;9.33;;;;;;;0.63;84.62;101423.28;5065936;28;20280;-68
2022/03/15 02:35:36;;;;;;;12.17;9.23;;;;;;;0.48;85.04;101431.97;5053117;28;20287;-68
2022/03/15 02:38:05;;;;;;;10.27;9.23;;;;;;;0.40;86.04;101424.84;5053381;28;20228;-68
2022/03/15 02:40:31;;;;;;;10.67;9.37;;;;;;;0.31;86.47;101426.97;5066271;28;20284;-68
2022/03/15 02:42:58;;;;;;;9.67;8.77;;;;;;;0.24;87.04;101424.97;5061167;28;20303;-68
2022/03/15 02:45:27;;;;;;;17.53;10.47;;;;;;;0.21;87.26;101425.72;5060968;28;20290;-68
2022/03/15 02:47:53;;;;;;;12.93;9.43;;;;;;;0.11;88.25;101425.22;5057954;28;20212;-68
2022/03/15 02:50:20;;;;;;;17.37;10.20;;;;;;;-0.12;89.74;101432.66;5055698;28;21589;-68
2022/03/15 02:52:47;;;;;;;12.83;10.50;;;;;;;-0.13;90.24;101423.34;5054624;28;20200;-67
2022/03/15 02:55:18;;;;;;;11.10;9.20;;;;;;;-0.18;90.60;101414.72;5067612;28;20196;-68
2022/03/15 02:57:45;;;;;;;9.63;8.83;;;;;;;-0.26;90.76;101403.44;5060089;28;20248;-67
2022/03/15 03:00:13;;;;;;;10.97;9.97;;;;;;;-0.21;90.74;101412.06;5061596;28;20254;-67
2022/03/15 03:02:40;;;;;;;11.33;10.23;;;;;;;-0.21;91.01;101409.56;5055730;28;20205;-68
2022/03/15 03:05:08;;;;;;;11.67;10.43;;;;;;;-0.20;91.26;101411.28;5059396;28;20752;-67
2022/03/15 03:07:35;;;;;;;11.13;9.93;;;;;;;-0.23;91.36;101423.75;5057165;28;20309;-68
2022/03/15 03:10:04;;;;;;;11.10;9.90;;;;;;;-0.34;91.95;101419.88;5056111;28;20292;-68
2022/03/15 03:12:32;;;;;;;14.77;10.27;;;;;;;-0.42;92.17;101418.63;5067046;28;20730;-68
2022/03/15 03:15:00;;;;;;;11.00;9.60;;;;;;;-0.41;92.52;101407.78;5070080;28;20238;-68
2022/03/15 03:17:28;;;;;;;10.87;9.60;;;;;;;-0.38;92.69;101412.09;5064370;28;20691;-68
2022/03/15 03:19:54;;;;;;;13.93;10.40;;;;;;;-0.38;92.25;101404.53;5060214;28;20291;-68
2022/03/15 03:22:21;;;;;;;17.03;9.77;;;;;;;-0.34;91.61;101399.72;5060781;28;20287;-68
2022/03/15 03:24:50;;;;;;;10.20;9.20;;;;;;;-0.32;90.92;101394.75;5055814;28;20581;-68
2022/03/15 03:27:17;;;;;;;12.43;10.10;;;;;;;-0.33;90.87;101386.31;5057070;28;20318;-68
2022/03/15 03:29:45;;;;;;;11.03;9.93;;;;;;;-0.35;90.80;101382.84;5056084;28;20647;-68
2022/03/15 03:32:13;;;;;;;12.87;9.83;;;;;;;-0.40;90.69;101370.84;5062824;28;20644;-68
2022/03/15 03:34:40;;;;;;;11.80;9.67;;;;;;;-0.31;90.84;101384.72;5070922;28;21581;-68
2022/03/15 03:37:07;;;;;;;15.87;10.33;;;;;;;-0.37;91.12;101374.38;5070147;28;20599;-69
2022/03/15 03:39:34;;;;;;;13.33;10.00;;;;;;;-0.37;91.09;101376.91;5064739;28;20202;-68
2022/03/15 03:42:01;;;;;;;16.57;11.43;;;;;;;-0.40;91.26;101381.81;5061828;28;20290;-68
2022/03/15 03:44:28;;;;;;;13.10;10.80;;;;;;;-0.36;91.28;101383.66;5062682;28;20200;-68
2022/03/15 03:46:56;;;;;;;14.77;10.90;;;;;;;-0.50;91.24;101356.97;5056390;28;20744;-68
2022/03/15 03:49:24;;;;;;;14.63;10.90;;;;;;;-0.33;91.09;101386.31;5052287;28;20310;-68
2022/03/15 03:51:51;;;;;;;14.70;11.43;;;;;;;-0.43;91.04;101366.53;5052632;28;20643;-68
2022/03/15 03:54:18;;;;;;;17.60;11.13;;;;;;;-0.44;90.72;101359.78;5053403;28;20201;-67
2022/03/15 03:56:45;;;;;;;14.60;12.13;;;;;;;-0.34;91.00;101374.50;5053067;28;20775;-68
2022/03/15 03:59:12;;;;;;;13.27;11.13;;;;;;;-0.33;90.94;101378.78;5053885;28;20205;-67
2022/03/15 04:01:40;;;;;;;22.77;11.53;;;;;;;-0.32;91.04;101375.44;5065734;28;20200;-68
2022/03/15 04:04:09;;;;;;;18.43;12.33;;;;;;;-0.36;91.07;101378.63;5059142;28;20197;-68
2022/03/15 04:06:38;;;;;;;16.00;12.83;;;;;;;-0.57;91.58;101381.03;5051581;28;20203;-68
2022/03/15 04:09:05;;;;;;;17.43;11.97;;;;;;;-0.64;92.06;101380.66;5057954;28;20212;-68
2022/03/15 04:11:32;;;;;;;15.90;11.50;;;;;;;-0.70;92.52;101368.66;5062716;28;20199;-68
2022/03/15 04:14:01;;;;;;;13.53;10.97;;;;;;;-0.65;92.58;101364.72;5063028;28;20204;-68
2022/03/15 04:16:28;;;;;;;18.73;11.87;;;;;;;-0.60;92.21;101359.88;5061533;28;20204;-67
2022/03/15 04:18:55;;;;;;;14.97;10.57;;;;;;;-0.63;91.99;101349.66;5070225;28;20238;-69
2022/03/15 04:21:24;;;;;;;12.93;11.03;;;;;;;-0.62;92.18;101356.44;5061225;28;20307;-68
2022/03/15 04:23:51;;;;;;;15.50;12.50;;;;;;;-0.66;92.29;101369.66;5068534;28;20554;-68
2022/03/15 04:26:18;;;;;;;14.60;11.97;;;;;;;-0.76;92.10;101362.47;5060411;28;20590;-68
2022/03/15 04:28:45;;;;;;;16.40;10.83;;;;;;;-0.83;92.15;101360.47;5057058;28;20244;-68
2022/03/15 04:31:13;;;;;;;13.33;11.60;;;;;;;-0.80;92.37;101371.53;5052196;28;20287;-68
2022/03/15 04:33:41;;;;;;;12.93;10.23;;;;;;;-0.95;93.43;101368.31;5058157;28;20291;-68
2022/03/15 04:36:08;;;;;;;14.17;10.97;;;;;;;-1.03;93.94;101346.09;5056208;28;20197;-68
2022/03/15 04:38:36;;;;;;;14.97;10.97;;;;;;;-0.97;94.27;101353.94;5054434;28;20284;-68
2022/03/15 04:41:05;;;;;;;14.20;10.83;;;;;;;-0.94;94.37;101354.94;5066574;28;20223;-68
2022/03/15 04:43:32;;;;;;;19.43;10.93;;;;;;;-1.06;94.38;101330.03;5061908;28;20729;-67
2022/03/15 04:45:59;;;;;;;16.47;11.07;;;;;;;-1.01;94.78;101344.50;5056376;28;20193;-68
2022/03/15 04:48:26;;;;;;;13.33;10.90;;;;;;;-0.96;94.99;101348.09;5058663;28;20220;-68
2022/03/15 04:50:53;;;;;;;15.13;10.33;;;;;;;-0.88;94.72;101351.84;5059425;28;20291;-68
2022/03/15 04:53:21;;;;;;;13.10;10.70;;;;;;;-0.93;94.60;101334.00;5068472;28;20204;-68
2022/03/15 04:55:49;;;;;;;13.77;11.50;;;;;;;-0.86;94.53;101352.75;5052404;28;20196;-68
2022/03/15 04:58:16;;;;;;;16.63;11.10;;;;;;;-0.84;94.25;101354.56;5066863;28;20299;-69
2022/03/15 05:00:43;;;;;;;18.43;11.43;;;;;;;-1.01;94.54;101364.63;5062541;28;20291;-68
2022/03/15 05:03:10;;;;;;;19.80;11.17;;;;;;;-0.99;95.26;101368.94;5062431;28;20708;-69
2022/03/15 05:05:37;;;;;;;12.03;10.83;;;;;;;-0.94;95.37;101366.66;5060275;28;20735;-69
2022/03/15 05:08:04;;;;;;;11.90;10.50;;;;;;;-0.86;95.17;101365.34;5064083;28;20687;-68
2022/03/15 05:13:29;;;;;;;11.83;10.57;;;;;;;-0.71;94.69;101371.13;4998241;28;20195;-69
2022/03/15 05:15:55;;;;;;;11.50;10.30;;;;;;;-0.66;94.43;101369.66;5039630;28;20200;-69
2022/03/15 05:18:23;;;;;;;11.03;9.93;;;;;;;-0.60;94.25;101380.03;5055815;28;20216;-69
2022/03/15 05:20:50;;;;;;;12.67;9.97;;;;;;;-0.56;94.00;101387.81;5057005;28;20293;-69
2022/03/15 05:23:17;;;;;;;11.57;10.50;;;;;;;-0.49;93.86;101386.44;5069398;28;20578;-69
2022/03/15 05:25:44;;;;;;;17.50;10.33;;;;;;;-0.40;94.42;101391.00;5063233;28;20549;-69
2022/03/15 05:28:10;;;;;;;14.07;11.67;;;;;;;-0.50;96.06;101374.63;5063516;28;20251;-67
2022/03/15 05:30:39;;;;;;;18.93;11.73;;;;;;;-0.40;97.22;101394.41;5062593;28;20203;-69
2022/03/15 05:33:06;;;;;;;16.03;11.23;;;;;;;-0.35;97.95;101387.91;5058660;28;20212;-69
2022/03/15 05:35:33;;;;;;;11.97;10.80;;;;;;;-0.26;98.42;101392.50;5056534;28;20200;-70
2022/03/15 05:38:00;;;;;;;13.90;11.20;;;;;;;-0.21;98.85;101379.31;5060112;28;20200;-69
2022/03/15 05:40:27;;;;;;;14.17;11.10;;;;;;;0.07;99.10;101403.19;5062775;28;20228;-68
2022/03/15 05:42:54;;;;;;;18.13;12.03;;;;;;;0.23;98.80;101398.03;5055705;28;20197;-69
2022/03/15 05:45:21;;;;;;;21.60;11.03;;;;;;;0.36;98.29;101402.78;5055977;28;20708;-68
2022/03/15 05:47:49;;;;;;;20.27;12.70;;;;;;;0.55;96.46;101409.50;5061074;28;20200;-68
2022/03/15 05:50:16;;;;;;;17.07;11.40;;;;;;;0.63;96.23;101403.97;5070679;28;20299;-68
2022/03/15 05:52:43;;;;;;;19.83;12.10;;;;;;;0.81;96.39;101404.72;5066585;28;20286;-68
2022/03/15 05:55:11;;;;;;;17.73;12.13;;;;;;;0.84;95.51;101398.94;5055561;28;20294;-68
2022/03/15 05:57:39;;;;;;;11.83;10.73;;;;;;;1.01;95.48;101413.97;5058881;28;20312;-68
2022/03/15 06:00:09;;;;;;;15.17;11.00;;;;;;;1.18;95.22;101411.25;5072787;28;20203;-67
2022/03/15 06:02:36;;;;;;;15.90;11.63;;;;;;;1.20;94.41;101419.75;5067391;28;20228;-69
2022/03/15 06:05:05;;;;;;;12.20;9.67;;;;;;;1.43;93.87;101421.50;5069429;28;20668;-69
2022/03/15 06:07:32;;;;;;;11.57;10.00;;;;;;;1.57;92.99;101421.25;5065091;28;20610;-69
2022/03/15 06:09:59;;;;;;;10.30;9.33;;;;;;;1.67;91.83;101417.41;5064214;28;20324;-70
2022/03/15 06:12:26;;;;;;;11.33;9.40;;;;;;;1.81;90.78;101413.72;5057981;28;20288;-65
2022/03/15 06:14:54;;;;;;;10.40;9.33;;;;;;;1.91;89.86;101400.59;5056183;28;20291;-64
2022/03/15 06:17:21;;;;;;;10.27;9.27;;;;;;;2.07;88.70;101413.00;5062256;28;20283;-65
2022/03/15 06:19:48;;;;;;;9.83;8.93;;;;;;;2.24;88.68;101416.13;5062178;28;20193;-65
2022/03/15 06:22:16;;;;;;;11.03;9.33;;;;;;;2.47;89.32;101396.69;5059672;28;20212;-65
2022/03/15 06:24:43;;;;;;;10.47;9.10;;;;;;;2.55;89.46;101382.63;5060889;28;20747;-65
2022/03/15 06:27:10;;;;;;;10.07;9.13;;;;;;;2.81;88.54;101402.06;5059651;28;20212;-65
2022/03/15 06:29:37;;;;;;;10.23;9.23;;;;;;;2.94;88.26;101401.66;5060453;28;20312;-65
2022/03/15 06:32:04;;;;;;;9.10;8.47;;;;;;;3.05;84.69;101395.28;5063844;28;20196;-65
2022/03/15 06:34:31;;;;;;;10.10;9.07;;;;;;;3.17;84.96;101402.38;5061505;28;20712;-65
2022/03/15 06:36:59;;;;;;;13.13;9.37;;;;;;;3.25;84.96;101408.56;5059937;28;20295;-65
2022/03/15 06:39:27;;;;;;;10.27;9.13;;;;;;;3.30;83.01;101390.94;5060866;28;20207;-65
2022/03/15 06:41:54;;;;;;;12.90;9.63;;;;;;;3.48;84.15;101399.13;5061615;28;20736;-65
2022/03/15 06:44:21;;;;;;;10.77;8.93;;;;;;;3.59;81.99;101392.69;5066575;28;20573;-65
2022/03/15 06:46:48;;;;;;;11.70;9.73;;;;;;;3.65;78.78;101408.13;5067773;28;20379;-65
2022/03/15 06:49:15;;;;;;;9.80;8.97;;;;;;;3.68;77.67;101408.22;5059634;28;20305;-65
2022/03/15 06:51:42;;;;;;;9.73;8.83;;;;;;;3.85;78.73;101422.22;5060839;28;20287;-67
2022/03/15 06:54:09;;;;;;;14.70;9.47;;;;;;;3.81;76.43;101400.16;5060221;28;20219;-65
2022/03/15 06:56:40;;;;;;;11.50;9.70;;;;;;;4.00;75.67;101416.75;5061112;28;20598;-65
2022/03/15 06:59:07;;;;;;;11.37;10.17;;;;;;;4.17;77.65;101416.38;5061681;28;20314;-66
2022/03/15 07:01:34;;;;;;;11.43;10.23;;;;;;;4.39;75.23;101410.25;5062199;28;20199;-65
2022/03/15 07:04:01;;;;;;;15.87;10.10;;;;;;;4.58;75.46;101403.97;5060319;28;20239;-66
2022/03/15 07:06:27;;;;;;;9.70;8.93;;;;;;;4.61;73.25;101409.13;5060676;28;20212;-66
2022/03/15 07:08:54;;;;;;;9.77;8.83;;;;;;;4.78;72.32;101407.00;5056841;28;20613;-66
2022/03/15 07:11:22;;;;;;;12.40;9.53;;;;;;;4.69;74.18;101382.22;5061589;28;20202;-66
2022/03/15 07:13:50;;;;;;;10.80;9.77;;;;;;;4.89;71.51;101410.66;5061270;28;20269;-66
2022/03/15 07:16:17;;;;;;;12.70;9.40;;;;;;;4.92;70.07;101416.69;5061911;28;20204;-66
2022/03/15 07:18:44;;;;;;;13.03;9.43;;;;;;;5.01;72.36;101416.06;5062327;28;20294;-66
2022/03/15 07:21:11;;;;;;;11.03;9.27;;;;;;;5.05;71.11;101408.53;5061541;28;20212;-66
2022/03/15 07:23:38;;;;;;;11.63;9.60;;;;;;;5.33;70.46;101409.19;5060616;28;20208;-66
2022/03/15 07:26:07;;;;;;;10.40;9.53;;;;;;;5.53;67.90;101415.56;5061584;28;20209;-66
2022/03/15 07:28:34;;;;;;;10.13;9.10;;;;;;;5.75;70.06;101417.78;5060181;28;20220;-66
2022/03/15 07:31:02;;;;;;;16.90;9.77;;;;;;;5.96;71.15;101418.25;5060971;28;20913;-67
2022/03/15 07:33:29;;;;;;;12.93;9.47;;;;;;;6.19;69.11;101413.63;5061848;28;20210;-66
2022/03/15 07:35:56;;;;;;;13.47;10.20;;;;;;;6.42;67.59;101406.44;5062810;28;20200;-65
2022/03/15 07:38:23;;;;;;;10.03;8.93;;;;;;;6.53;65.77;101399.81;5061264;28;20208;-66
2022/03/15 07:40:52;;;;;;;10.40;9.43;;;;;;;6.69;62.73;101407.78;5063005;28;20204;-69
2022/03/15 07:43:22;;;;;;;11.70;9.40;;;;;;;6.89;61.45;101403.03;5060291;28;20577;-66
2022/03/15 07:45:49;;;;;;;9.87;8.70;;;;;;;6.98;61.35;101400.63;5061601;28;20300;-65
2022/03/15 07:48:18;;;;;;;11.10;10.00;;;;;;;7.21;61.12;101404.41;5061841;28;20215;-66
2022/03/15 07:50:45;;;;;;;9.70;8.80;;;;;;;7.33;59.80;101408.84;5059837;28;20197;-66
2022/03/15 07:53:11;;;;;;;20.33;9.50;;;;;;;7.48;58.09;101403.94;5061683;28;20231;-65
2022/03/15 07:55:38;;;;;;;14.97;8.93;;;;;;;7.62;57.61;101406.72;5063252;28;20672;-66
2022/03/15 07:58:05;;;;;;;10.03;9.03;;;;;;;7.77;58.60;101400.09;5065151;28;20694;-69
2022/03/15 08:00:33;;;;;;;9.67;8.60;;;;;;;8.08;54.13;101411.56;5062158;28;20204;-66
2022/03/15 08:02:59;;;;;;;8.87;8.07;;;;;;;8.16;54.20;101406.53;5059346;28;20294;-65
2022/03/15 08:05:28;;;;;;;10.13;9.33;;;;;;;8.25;53.48;101397.28;5065116;28;20227;-66
2022/03/15 08:07:56;;;;;;;9.73;8.83;;;;;;;8.53;53.51;101402.72;5059505;28;20216;-68
2022/03/15 08:10:23;;;;;;;8.20;7.50;;;;;;;8.65;52.87;101397.72;5060128;28;20243;-68
2022/03/15 08:12:50;;;;;;;12.03;8.53;;;;;;;8.85;53.30;101396.22;5061081;28;20580;-68
2022/03/15 08:15:17;;;;;;;8.53;7.90;;;;;;;9.12;52.16;101401.53;5059339;28;20269;-68
2022/03/15 08:17:44;;;;;;;8.93;8.03;;;;;;;9.20;48.41;101399.03;5060911;28;20231;-66
2022/03/15 08:20:14;;;;;;;8.87;8.10;;;;;;;9.13;49.26;101398.16;5060072;28;20631;-69
2022/03/15 08:22:43;;;;;;;9.07;7.67;;;;;;;9.41;50.31;101399.19;5061992;28;20207;-68
2022/03/15 08:25:10;;;;;;;9.57;8.07;;;;;;;9.32;47.55;101402.53;5066050;28;20588;-68
2022/03/15 08:27:37;;;;;;;9.60;8.40;;;;;;;9.34;50.65;101398.28;5056020;28;20262;-67
2022/03/15 08:30:05;;;;;;;7.87;7.27;;;;;;;9.55;49.72;101391.59;5062277;28;20308;-66
2022/03/15 08:32:32;;;;;;;9.43;7.27;;;;;;;9.74;47.99;101399.38;5060732;28;20242;-66
2022/03/15 08:34:59;;;;;;;8.53;7.90;;;;;;;10.03;47.89;101391.81;5059818;28;20640;-66
2022/03/15 08:37:26;;;;;;;9.23;8.33;;;;;;;10.23;49.81;101386.81;5065975;28;20246;-66
2022/03/15 08:39:55;;;;;;;8.73;7.87;;;;;;;10.31;46.59;101392.78;5061395;28;20200;-66
2022/03/15 08:42:22;;;;;;;10.57;7.67;;;;;;;10.48;49.17;101384.31;5062802;28;20218;-66
2022/03/15 08:44:49;;;;;;;9.10;8.32;;;;;;;10.52;49.82;101386.03;5062250;28;20795;-69
2022/03/15 08:47:16;;;;;;;10.48;9.48;;;;;;;10.75;46.41;101386.06;5056468;28;21013;-65
2022/03/15 08:49:43;;;;;;;8.70;7.93;;;;;;;10.97;46.02;101381.78;5062546;28;20223;-64
2022/03/15 08:52:11;;;;;;;8.13;7.53;;;;;;;10.92;43.50;101379.19;5052110;28;20266;-65
2022/03/15 08:54:38;;;;;;;11.07;8.17;;;;;;;10.85;45.77;101372.38;5062874;28;20675;-64
2022/03/15 08:57:07;;;;;;;7.83;7.07;;;;;;;10.87;46.52;101372.34;5059063;28;20238;-65
2022/03/15 08:59:34;;;;;;;11.63;8.43;;;;;;;11.12;46.48;101366.34;5054225;28;20287;-65
2022/03/15 09:02:01;;;;;;;7.93;7.43;;;;;;;11.34;44.77;101362.06;5058341;28;20297;-65
2022/03/15 09:04:28;;;;;;;8.53;7.83;;;;;;;11.16;44.63;101357.81;5068525;28;20203;-65
2022/03/15 09:06:56;;;;;;;7.17;6.57;;;;;;;11.36;45.08;101360.34;5065157;28;20207;-64
2022/03/15 09:09:25;;;;;;;7.47;7.03;;;;;;;11.36;44.26;101350.94;5054393;28;20218;-64
2022/03/15 09:11:52;;;;;;;8.07;7.37;;;;;;;11.25;45.06;101342.38;5054501;28;20197;-65
2022/03/15 09:14:21;;;;;;;8.40;7.67;;;;;;;11.03;43.17;101343.28;5062973;28;20296;-65
2022/03/15 09:16:48;;;;;;;8.93;6.90;;;;;;;11.25;43.54;101337.25;5054685;28;20288;-65
2022/03/15 09:19:15;;;;;;;9.60;7.40;;;;;;;11.54;43.03;101347.44;5054422;28;20279;-65
2022/03/15 09:21:43;;;;;;;7.80;7.20;;;;;;;11.67;45.62;101346.53;5056232;28;20290;-65
2022/03/15 09:24:11;;;;;;;7.37;6.87;;;;;;;11.74;45.74;101337.13;5063427;28;20323;-65
2022/03/15 09:26:42;;;;;;;8.00;7.27;;;;;;;11.62;43.06;101334.56;5062743;28;20200;-64
2022/03/15 09:29:09;;;;;;;8.07;7.47;;;;;;;11.83;41.70;101327.66;5067126;28;20687;-65
2022/03/15 09:31:38;;;;;;;8.90;8.13;;;;;;;12.01;42.14;101324.16;5055663;28;20291;-65
2022/03/15 09:34:05;;;;;;;8.57;7.97;;;;;;;12.15;42.21;101309.47;5054131;28;20621;-65
2022/03/15 09:36:32;;;;;;;8.00;6.77;;;;;;;12.15;42.83;101303.53;5074247;28;20299;-65
2022/03/15 09:38:59;;;;;;;7.87;7.43;;;;;;;12.26;43.96;101315.44;5058707;28;20572;-65
2022/03/15 09:41:27;;;;;;;6.07;5.67;;;;;;;12.46;44.08;101310.16;5065143;28;20192;-65
2022/03/15 09:43:57;;;;;;;7.60;6.90;;;;;;;12.50;43.45;101304.94;5069494;28;20291;-65
2022/03/15 09:46:24;;;;;;;7.20;6.60;;;;;;;12.45;43.45;101295.56;5056188;28;20204;-64
2022/03/15 09:48:55;;;;;;;6.57;6.13;;;;;;;12.69;40.92;101297.09;5074058;28;20223;-65
2022/03/15 09:51:23;;;;;;;7.05;6.45;;;;;;;12.79;40.08;101293.59;5062553;28;20226;-65
2022/03/15 09:53:51;;;;;;;6.07;5.47;;;;;;;12.80;39.53;101277.25;5057176;28;20251;-64
2022/03/15 09:56:18;;;;;;;7.53;6.93;;;;;;;12.86;41.75;101275.47;5062558;28;20605;-65
2022/03/15 09:58:45;;;;;;;6.97;6.47;;;;;;;12.61;39.13;101271.44;5069433;28;20576;-65
2022/03/15 10:01:17;;;;;;;7.27;6.57;;;;;;;11.92;38.30;101268.50;5054102;28;20145;-65
2022/03/15 10:03:44;;;;;;;6.63;6.13;;;;;;;11.75;39.50;101265.19;5057973;28;20250;-64
2022/03/15 10:06:13;;;;;;;7.20;6.57;;;;;;;11.94;41.42;101258.22;5073579;28;20223;-65
2022/03/15 10:08:40;;;;;;;8.17;7.47;;;;;;;12.11;43.29;101251.25;5053558;28;20286;-65
2022/03/15 10:11:08;;;;;;;16.10;12.10;;;;;;;12.22;42.74;101246.88;5068712;28;20230;-64
2022/03/15 10:13:35;;;;;;;8.67;7.90;;;;;;;12.31;42.01;101249.38;5072404;28;20288;-64
2022/03/15 10:16:03;;;;;;;8.87;7.97;;;;;;;12.52;41.86;101254.34;5059468;28;20192;-65
2022/03/15 10:18:31;;;;;;;10.77;6.83;;;;;;;12.68;40.96;101254.22;5061871;28;20204;-65
2022/03/15 10:20:58;;;;;;;8.77;6.67;;;;;;;12.84;40.28;101245.47;5057148;28;20200;-65
2022/03/15 10:23:29;;;;;;;12.80;7.33;;;;;;;12.82;41.38;101236.94;5063862;28;20200;-65
2022/03/15 10:25:58;;;;;;;8.60;7.90;;;;;;;12.97;41.77;101227.31;5070628;28;20204;-65
2022/03/15 10:28:25;;;;;;;6.10;5.60;;;;;;;13.06;41.64;101226.34;5073079;28;20386;-65
2022/03/15 10:30:53;;;;;;;5.53;5.10;;;;;;;13.15;41.07;101205.69;5056095;28;20584;-65
2022/03/15 10:33:20;;;;;;;6.90;6.40;;;;;;;13.35;40.76;101219.16;5069518;28;20226;-65
2022/03/15 10:35:49;;;;;;;6.03;5.37;;;;;;;13.21;39.60;101209.94;5061772;28;20200;-65
2022/03/15 10:38:17;;;;;;;8.60;6.17;;;;;;;13.44;41.17;101208.75;5060123;28;20204;-65
2022/03/15 10:40:47;;;;;;;6.13;5.77;;;;;;;13.44;39.98;101202.75;5072847;28;20196;-65
2022/03/15 10:43:17;;;;;;;6.50;5.87;;;;;;;13.30;40.68;101199.50;5060921;28;20204;-65
2022/03/15 10:45:46;;;;;;;6.73;6.10;;;;;;;13.42;44.94;101189.88;5072841;28;20261;-65
2022/03/15 10:48:18;;;;;;;6.23;5.83;;;;;;;13.43;42.36;101191.59;5073154;28;20208;-65
2022/03/15 10:50:54;;;;;;;7.17;6.57;;;;;;;13.58;42.10;101185.38;5054185;28;20216;-65
2022/03/15 10:53:22;;;;;;;6.23;5.73;;;;;;;13.67;40.29;101180.94;5059815;28;20195;-65
2022/03/15 10:55:50;;;;;;;7.40;6.83;;;;;;;13.84;42.73;101169.53;5053854;28;20258;-65
2022/03/15 10:58:23;;;;;;;10.77;9.77;;;;;;;13.68;39.63;101156.88;5059463;28;20208;-65
2022/03/15 11:00:54;;;;;;;7.13;6.70;;;;;;;13.69;40.04;101168.03;5054816;28;20201;-65
2022/03/15 11:03:25;;;;;;;8.30;7.60;;;;;;;13.54;39.26;101156.22;5072765;28;20584;-65
2022/03/15 11:05:57;;;;;;;6.83;6.23;;;;;;;13.55;38.77;101155.34;5070235;28;20197;-65
2022/03/15 11:08:25;;;;;;;7.23;6.73;;;;;;;13.55;41.29;101142.47;5066196;28;20576;-65
2022/03/15 11:10:54;;;;;;;6.20;5.80;;;;;;;13.62;40.11;101145.81;5062085;28;20589;-65
2022/03/15 11:13:28;;;;;;;6.47;6.07;;;;;;;13.80;39.69;101136.94;5052690;28;20677;-65
2022/03/15 11:15:57;;;;;;;8.63;7.27;;;;;;;13.90;41.10;101125.59;5052467;28;20197;-65
2022/03/15 11:18:28;;;;;;;7.33;6.63;;;;;;;13.71;38.34;101121.59;5058157;28;20202;-65
2022/03/15 11:20:55;;;;;;;6.97;6.57;;;;;;;13.68;39.29;101125.94;5060266;28;20200;-65
2022/03/15 11:23:25;;;;;;;6.87;6.37;;;;;;;13.63;39.19;101111.44;5056663;28;20669;-65